Time;durP1;ratioP1;P1;durP2;ratioP2;P2;SDS_P1;SDS_P2;PMS_P1;PMS_P2;Temp;Humidity;BMP_temperature;BMP_pressure;BME280_temperature;BME280_humidity;BME280_pressure;Samples;Min_cycle;Max_cycle;Signal;HPM_P1;HPM_P2
2022/01/15 00:01:15;;;;;;;22.45;8.52;;;7.80;99.90;;;;;;5106303;28;20650;-71
2022/01/15 00:03:42;;;;;;;17.25;9.80;;;7.90;99.90;;;;;;5103414;28;20261;-71
2022/01/15 00:06:09;;;;;;;27.85;10.30;;;7.90;99.90;;;;;;5112254;28;20186;-72
2022/01/15 00:08:36;;;;;;;22.15;10.52;;;7.90;99.90;;;;;;5108493;28;20213;-71
2022/01/15 00:11:02;;;;;;;24.98;9.90;;;7.90;99.90;;;;;;5098077;28;20259;-72
2022/01/15 00:13:31;;;;;;;22.95;11.57;;;7.90;99.90;;;;;;5099594;28;20218;-72
2022/01/15 00:16:07;;;;;;;21.67;10.05;;;8.00;99.90;;;;;;5104334;28;20508;-72
2022/01/15 00:18:46;;;;;;;34.20;11.45;;;8.00;99.90;;;;;;5106048;28;20243;-71
2022/01/15 00:21:15;;;;;;;20.70;10.13;;;8.00;99.90;;;;;;5099868;28;20210;-71
2022/01/15 00:23:44;;;;;;;27.42;11.35;;;7.90;99.90;;;;;;5099126;28;20231;-72
2022/01/15 00:26:11;;;;;;;18.95;9.93;;;7.90;99.90;;;;;;5102358;28;20186;-72
2022/01/15 00:28:38;;;;;;;31.60;12.07;;;7.90;99.90;;;;;;5105596;28;20220;-72
2022/01/15 00:31:06;;;;;;;26.85;12.63;;;7.90;99.90;;;;;;5104312;28;20252;-71
2022/01/15 00:33:35;;;;;;;21.92;11.07;;;7.80;99.90;;;;;;5106680;28;20201;-71
2022/01/15 00:36:02;;;;;;;23.17;10.50;;;7.80;99.90;;;;;;5107555;28;20252;-71
2022/01/15 00:38:29;;;;;;;28.83;10.75;;;7.60;99.90;;;;;;5107681;28;20177;-71
2022/01/15 00:40:56;;;;;;;21.02;11.02;;;7.50;99.90;;;;;;5106562;28;20375;-72
2022/01/15 00:43:23;;;;;;;27.05;12.80;;;7.50;99.90;;;;;;5107343;27;20269;-71
2022/01/15 00:45:50;;;;;;;22.85;11.40;;;7.40;99.90;;;;;;5107167;28;20210;-72
2022/01/15 00:48:18;;;;;;;27.08;11.32;;;7.40;99.90;;;;;;5107106;28;20209;-71
2022/01/15 00:50:45;;;;;;;29.98;10.55;;;7.20;99.90;;;;;;5105756;28;20240;-71
2022/01/15 00:53:12;;;;;;;28.35;12.52;;;7.10;99.90;;;;;;5106550;28;20226;-71
2022/01/15 00:55:39;;;;;;;34.88;13.35;;;7.10;99.90;;;;;;5106181;28;20218;-71
2022/01/15 00:58:06;;;;;;;34.83;14.20;;;7.00;99.90;;;;;;5105202;28;20269;-71
2022/01/15 01:00:33;;;;;;;26.45;10.30;;;7.00;99.90;;;;;;5098209;28;20262;-71
2022/01/15 01:03:02;;;;;;;26.52;11.48;;;7.00;99.90;;;;;;5100562;28;20260;-71
2022/01/15 01:05:30;;;;;;;27.42;10.93;;;6.90;99.90;;;;;;5096711;28;20237;-72
2022/01/15 01:07:57;;;;;;;34.72;15.25;;;6.90;99.90;;;;;;5099622;28;20225;-71
2022/01/15 01:13:17;;;;;;;38.83;13.27;;;6.90;99.90;;;;;;5102487;28;20313;-72
2022/01/15 01:22:17;;;;;;;49.17;20.00;;;6.90;99.90;;;;;;5094359;28;20230;-72
2022/01/15 01:24:33;;;;;;;36.08;18.55;;;6.90;99.90;;;;;;5103712;28;20396;-71
2022/01/15 01:27:03;;;;;;;37.97;16.55;;;6.90;99.90;;;;;;5105887;28;20309;-72
2022/01/15 01:29:38;;;;;;;38.08;20.88;;;6.90;99.90;;;;;;5088496;28;20234;-72
2022/01/15 01:32:10;;;;;;;41.75;17.25;;;7.00;99.90;;;;;;5082698;28;20270;-71
2022/01/15 01:34:41;;;;;;;53.08;18.17;;;7.00;99.90;;;;;;5097073;28;20199;-71
2022/01/15 01:37:14;;;;;;;34.15;18.75;;;7.00;99.90;;;;;;5104834;28;20245;-72
2022/01/15 01:39:45;;;;;;;45.13;19.63;;;7.00;99.90;;;;;;5104890;28;20729;-71
2022/01/15 01:45:12;;;;;;;40.20;19.83;;;7.00;99.90;;;;;;5166083;27;20613;-71
2022/01/15 01:47:41;;;;;;;46.20;20.48;;;6.90;99.90;;;;;;5161669;27;20192;-71
2022/01/15 01:50:14;;;;;;;52.42;19.27;;;6.90;99.90;;;;;;5165288;27;20250;-71
2022/01/15 01:52:43;;;;;;;38.97;17.77;;;6.80;99.90;;;;;;5160323;27;20266;-70
2022/01/15 01:55:11;;;;;;;38.47;17.20;;;6.80;99.90;;;;;;5148503;27;20251;-71
2022/01/15 01:57:40;;;;;;;44.45;17.40;;;6.80;99.90;;;;;;5158852;27;20186;-70
2022/01/15 02:00:11;;;;;;;54.17;19.50;;;6.70;99.90;;;;;;5161398;27;20210;-70
2022/01/15 02:02:39;;;;;;;55.80;17.88;;;6.60;99.90;;;;;;5154847;27;20206;-70
2022/01/15 02:05:07;;;;;;;50.88;20.95;;;6.60;99.90;;;;;;5153089;27;20500;-71
2022/01/15 02:07:35;;;;;;;44.55;18.50;;;6.60;99.90;;;;;;5158734;27;20191;-70
2022/01/15 02:10:05;;;;;;;52.20;20.20;;;6.60;99.90;;;;;;5158567;27;20183;-70
2022/01/15 02:12:31;;;;;;;42.33;20.42;;;6.60;99.90;;;;;;5160452;27;20282;-70
2022/01/15 02:15:04;;;;;;;53.55;21.88;;;6.60;99.90;;;;;;5144527;27;20219;-70
2022/01/15 02:17:33;;;;;;;65.57;20.50;;;6.60;99.90;;;;;;5144335;27;20202;-71
2022/01/15 02:20:34;;;;;;;48.47;18.30;;;6.60;99.90;;;;;;5142796;27;20190;-71
2022/01/15 02:25:57;;;;;;;43.65;16.02;;;6.60;99.90;;;;;;5129665;27;20195;-70
2022/01/15 02:28:27;;;;;;;41.40;17.63;;;6.50;99.90;;;;;;5152883;27;20519;-70
2022/01/15 02:30:55;;;;;;;48.58;20.23;;;6.50;99.90;;;;;;5157767;27;20204;-71
2022/01/15 02:33:23;;;;;;;70.05;23.88;;;6.50;99.90;;;;;;5158431;27;20181;-71
2022/01/15 02:35:52;;;;;;;63.28;21.77;;;6.50;99.90;;;;;;5152064;27;20215;-70
2022/01/15 02:38:20;;;;;;;58.00;21.17;;;6.50;99.90;;;;;;5156044;27;20187;-71
2022/01/15 02:40:48;;;;;;;64.07;21.15;;;6.50;99.90;;;;;;5163510;27;20234;-70
2022/01/15 02:43:18;;;;;;;73.45;22.17;;;6.50;99.90;;;;;;5153730;27;20222;-71
2022/01/15 02:45:53;;;;;;;69.57;25.52;;;6.30;99.90;;;;;;5149730;27;20214;-71
2022/01/15 02:48:23;;;;;;;63.35;26.35;;;6.40;99.90;;;;;;5152880;27;20286;-71
2022/01/15 02:50:51;;;;;;;75.72;25.55;;;6.50;99.90;;;;;;5146155;27;20245;-70
2022/01/15 02:53:19;;;;;;;82.18;29.50;;;6.40;99.90;;;;;;5159869;27;20178;-71
2022/01/15 02:55:48;;;;;;;96.22;28.73;;;6.40;99.90;;;;;;5143008;27;20203;-71
2022/01/15 02:58:15;;;;;;;87.10;29.35;;;6.40;99.90;;;;;;5134233;27;20271;-71
2022/01/15 03:00:43;;;;;;;67.50;24.02;;;6.30;99.90;;;;;;5129345;28;20334;-71
2022/01/15 03:03:10;;;;;;;82.15;27.25;;;6.30;99.90;;;;;;5130132;28;20366;-71
2022/01/15 03:05:37;;;;;;;60.13;23.58;;;6.30;99.90;;;;;;5130168;28;20219;-70
2022/01/15 03:08:06;;;;;;;68.43;27.25;;;6.30;99.90;;;;;;5130048;28;20263;-71
2022/01/15 03:10:34;;;;;;;92.93;29.15;;;6.30;99.90;;;;;;5129532;28;20222;-72
2022/01/15 03:13:08;;;;;;;69.15;25.15;;;6.30;99.90;;;;;;5130293;28;20186;-70
2022/01/15 03:15:35;;;;;;;73.65;26.75;;;6.30;99.90;;;;;;5129692;28;20219;-70
2022/01/15 03:18:03;;;;;;;75.47;28.25;;;6.30;99.90;;;;;;5130443;28;20198;-71
2022/01/15 03:20:30;;;;;;;101.00;34.72;;;6.30;99.90;;;;;;5138458;27;20266;-71
2022/01/15 03:22:57;;;;;;;98.88;28.80;;;6.20;99.90;;;;;;5144757;27;20188;-70
2022/01/15 03:25:26;;;;;;;89.72;27.00;;;6.10;99.90;;;;;;5151696;27;20262;-71
2022/01/15 03:27:54;;;;;;;94.95;27.50;;;6.00;99.90;;;;;;5151042;27;20300;-70
2022/01/15 03:30:21;;;;;;;70.28;24.58;;;6.00;99.90;;;;;;5150121;27;20181;-70
2022/01/15 03:32:48;;;;;;;95.72;27.42;;;6.10;99.90;;;;;;5150430;27;20269;-71
2022/01/15 03:35:17;;;;;;;97.93;26.95;;;6.00;99.90;;;;;;5150472;27;20182;-70
2022/01/15 03:37:44;;;;;;;128.27;33.05;;;6.00;99.90;;;;;;5150735;27;20348;-70
2022/01/15 03:40:14;;;;;;;89.03;27.30;;;6.00;99.90;;;;;;5149843;27;20224;-70
2022/01/15 03:42:43;;;;;;;67.05;21.85;;;6.00;99.90;;;;;;5150220;27;20211;-71
2022/01/15 03:45:11;;;;;;;127.20;30.30;;;6.00;99.90;;;;;;5150044;27;20219;-70
2022/01/15 03:47:38;;;;;;;122.95;28.85;;;5.80;99.90;;;;;;5150717;27;20214;-70
2022/01/15 03:50:06;;;;;;;75.30;23.05;;;5.80;99.90;;;;;;5147272;27;20370;-70
2022/01/15 03:52:33;;;;;;;70.18;24.17;;;5.80;99.90;;;;;;5130795;27;20267;-70
2022/01/15 03:55:00;;;;;;;100.47;26.23;;;5.90;99.90;;;;;;5129031;28;20259;-70
2022/01/15 03:57:27;;;;;;;68.95;20.00;;;5.80;99.90;;;;;;5140508;27;20346;-71
2022/01/15 03:59:55;;;;;;;94.40;24.88;;;5.70;99.90;;;;;;5144401;27;20214;-71
2022/01/15 04:02:22;;;;;;;71.75;21.02;;;5.60;99.90;;;;;;5139359;27;20256;-70
2022/01/15 04:04:49;;;;;;;83.20;20.65;;;5.70;99.90;;;;;;5143889;27;20194;-70
2022/01/15 04:07:16;;;;;;;59.42;17.38;;;5.70;99.90;;;;;;5143341;27;20313;-70
2022/01/15 04:09:43;;;;;;;50.25;15.35;;;5.70;99.90;;;;;;5132663;27;20187;-70
2022/01/15 04:12:10;;;;;;;66.47;18.30;;;5.70;99.90;;;;;;5141896;27;20233;-70
2022/01/15 04:14:37;;;;;;;63.28;19.50;;;5.70;99.90;;;;;;5147683;27;20213;-70
2022/01/15 04:17:07;;;;;;;115.93;23.50;;;5.70;99.90;;;;;;5139477;27;20356;-71
2022/01/15 04:19:35;;;;;;;79.57;22.65;;;5.60;99.90;;;;;;5144472;27;20199;-71
2022/01/15 04:22:02;;;;;;;65.70;18.38;;;5.70;99.90;;;;;;5137139;27;20215;-70
2022/01/15 04:24:29;;;;;;;142.18;26.88;;;5.60;99.90;;;;;;5143991;27;20221;-71
2022/01/15 04:26:56;;;;;;;49.95;16.65;;;5.70;99.90;;;;;;5140398;27;20335;-71
2022/01/15 04:29:23;;;;;;;92.72;23.15;;;5.80;99.90;;;;;;5139370;27;20189;-71
2022/01/15 04:31:51;;;;;;;52.75;16.98;;;5.70;99.90;;;;;;5139205;27;20221;-71
2022/01/15 04:34:22;;;;;;;41.28;16.40;;;5.70;99.90;;;;;;5142962;27;20188;-71
2022/01/15 04:36:50;;;;;;;49.55;16.13;;;5.80;99.90;;;;;;5140776;27;20224;-70
2022/01/15 04:39:17;;;;;;;60.70;18.42;;;5.80;99.90;;;;;;5138983;27;20208;-71
2022/01/15 04:41:44;;;;;;;40.63;16.20;;;5.80;99.90;;;;;;5142597;27;20666;-70
2022/01/15 04:44:11;;;;;;;47.53;16.95;;;5.80;99.90;;;;;;5145226;27;20234;-70
2022/01/15 04:46:39;;;;;;;61.63;18.52;;;5.80;99.90;;;;;;5141381;27;20218;-71
2022/01/15 04:49:07;;;;;;;48.72;15.98;;;5.70;99.90;;;;;;5138491;27;20229;-70
2022/01/15 04:51:35;;;;;;;42.20;16.58;;;5.70;99.90;;;;;;5138961;27;20248;-70
2022/01/15 04:54:03;;;;;;;47.55;17.40;;;5.80;99.90;;;;;;5139236;27;20302;-72
2022/01/15 04:56:30;;;;;;;45.35;15.50;;;5.70;99.90;;;;;;5140815;27;20376;-71
2022/01/15 04:58:58;;;;;;;66.97;19.92;;;5.90;99.90;;;;;;5146030;27;20209;-70
2022/01/15 05:01:25;;;;;;;84.72;22.73;;;5.70;99.90;;;;;;5137551;27;20384;-70
2022/01/15 05:03:52;;;;;;;39.10;15.07;;;5.80;99.90;;;;;;5141975;27;20179;-70
2022/01/15 05:06:19;;;;;;;45.53;16.58;;;5.80;99.90;;;;;;5145088;27;20197;-71
2022/01/15 05:08:51;;;;;;;47.70;17.45;;;5.90;99.90;;;;;;5142131;27;20185;-71
2022/01/15 05:11:30;;;;;;;46.97;16.45;;;5.90;99.90;;;;;;5142804;27;20296;-72
2022/01/15 05:13:57;;;;;;;42.15;17.02;;;6.00;99.90;;;;;;5137059;27;20358;-71
2022/01/15 05:16:24;;;;;;;59.78;20.65;;;6.00;99.90;;;;;;5143357;27;20188;-71
2022/01/15 05:18:51;;;;;;;54.30;19.45;;;5.90;99.90;;;;;;5141640;27;20205;-71
2022/01/15 05:21:18;;;;;;;48.50;17.13;;;5.80;99.90;;;;;;5142444;27;20243;-70
2022/01/15 05:23:45;;;;;;;42.42;18.92;;;5.80;99.90;;;;;;5138046;27;20217;-70
2022/01/15 05:26:13;;;;;;;37.78;16.33;;;5.70;99.90;;;;;;5139615;27;20210;-70
2022/01/15 05:28:40;;;;;;;34.50;16.48;;;5.80;99.90;;;;;;5137994;27;20236;-70
2022/01/15 05:31:07;;;;;;;45.28;16.88;;;5.90;99.90;;;;;;5138870;27;20430;-70
2022/01/15 05:33:34;;;;;;;35.75;15.70;;;5.90;99.90;;;;;;5143270;27;20358;-71
2022/01/15 05:36:01;;;;;;;32.63;16.92;;;5.90;99.90;;;;;;5141568;27;20192;-70
2022/01/15 05:38:29;;;;;;;29.63;15.52;;;5.90;99.90;;;;;;5143424;27;20251;-71
2022/01/15 05:40:56;;;;;;;39.92;17.27;;;5.90;99.90;;;;;;5139855;27;20217;-70
2022/01/15 05:43:24;;;;;;;38.22;16.95;;;5.90;99.90;;;;;;5142393;28;20231;-71
2022/01/15 05:45:51;;;;;;;47.10;18.90;;;6.00;99.90;;;;;;5140896;28;20228;-70
2022/01/15 05:48:18;;;;;;;40.85;17.45;;;6.00;99.90;;;;;;5139576;27;20218;-70
2022/01/15 05:50:45;;;;;;;42.25;18.63;;;6.00;99.90;;;;;;5142911;28;20237;-71
2022/01/15 05:53:12;;;;;;;41.38;19.42;;;5.90;99.90;;;;;;5137249;28;20259;-71
2022/01/15 05:55:39;;;;;;;37.13;15.27;;;6.00;99.90;;;;;;5143750;28;20206;-71
2022/01/15 05:58:08;;;;;;;39.70;18.88;;;6.00;99.90;;;;;;5135121;28;20183;-70
2022/01/15 06:00:36;;;;;;;42.40;16.95;;;6.10;99.90;;;;;;5139435;27;20245;-71
2022/01/15 06:03:04;;;;;;;45.00;17.60;;;6.10;99.90;;;;;;5139732;28;20228;-71
2022/01/15 06:05:31;;;;;;;34.47;15.18;;;6.10;99.90;;;;;;5140330;28;20259;-70
2022/01/15 06:07:57;;;;;;;45.75;18.65;;;6.00;99.90;;;;;;5143425;28;20311;-70
2022/01/15 06:10:24;;;;;;;35.90;17.20;;;6.00;99.90;;;;;;5137111;27;20369;-71
2022/01/15 06:12:51;;;;;;;38.05;16.02;;;6.10;99.90;;;;;;5142554;27;20206;-71
2022/01/15 06:15:18;;;;;;;46.38;18.92;;;6.10;99.90;;;;;;5143816;28;20226;-71
2022/01/15 06:17:47;;;;;;;44.70;17.83;;;6.10;99.90;;;;;;5140941;28;20227;-70
2022/01/15 06:20:16;;;;;;;38.42;15.93;;;6.00;99.90;;;;;;5140524;27;20187;-70
2022/01/15 06:22:42;;;;;;;38.45;18.92;;;6.10;99.90;;;;;;5131299;27;20206;-71
2022/01/15 06:25:10;;;;;;;35.85;15.90;;;6.00;99.90;;;;;;5136736;28;20245;-70
2022/01/15 06:27:37;;;;;;;40.78;18.05;;;6.10;99.90;;;;;;5139944;28;20194;-71
2022/01/15 06:30:06;;;;;;;47.22;21.42;;;6.00;99.90;;;;;;5142972;27;20186;-71
2022/01/15 06:32:36;;;;;;;38.72;17.73;;;6.10;99.90;;;;;;5141862;27;20276;-72
2022/01/15 06:35:06;;;;;;;46.67;21.20;;;6.10;99.90;;;;;;5143617;27;20190;-70
2022/01/15 06:37:33;;;;;;;40.85;17.30;;;6.20;99.90;;;;;;5140381;27;20222;-70
2022/01/15 06:40:00;;;;;;;34.97;17.63;;;6.10;99.90;;;;;;5141658;27;20407;-71
2022/01/15 06:42:27;;;;;;;41.00;17.95;;;6.20;99.90;;;;;;5146704;27;20377;-70
2022/01/15 06:44:54;;;;;;;44.20;18.80;;;6.20;99.90;;;;;;5140750;27;20239;-71
2022/01/15 06:47:21;;;;;;;41.35;19.92;;;6.10;99.90;;;;;;5146090;27;20183;-71
2022/01/15 06:49:48;;;;;;;51.65;22.63;;;6.10;99.90;;;;;;5144654;27;20212;-71
2022/01/15 06:52:20;;;;;;;49.22;19.52;;;6.10;99.90;;;;;;5147501;27;20245;-71
2022/01/15 06:54:47;;;;;;;48.80;20.40;;;6.10;99.90;;;;;;5141253;27;20213;-71
2022/01/15 06:57:51;;;;;;;40.03;19.80;;;6.10;99.90;;;;;;5144663;27;20210;-71
2022/01/15 07:00:18;;;;;;;54.28;25.05;;;6.10;99.90;;;;;;5139948;27;20423;-71
2022/01/15 07:02:54;;;;;;;49.40;22.08;;;6.10;99.90;;;;;;5131195;27;20218;-73
2022/01/15 07:05:21;;;;;;;55.03;21.35;;;6.10;99.90;;;;;;5127407;28;20268;-71
2022/01/15 07:08:06;;;;;;;60.30;24.63;;;6.00;99.90;;;;;;5144013;27;20188;-71
2022/01/15 07:10:33;;;;;;;49.55;22.90;;;6.00;99.90;;;;;;5150715;27;20174;-71
2022/01/15 07:13:05;;;;;;;47.95;22.23;;;6.10;99.90;;;;;;5151739;27;20187;-72
2022/01/15 07:15:32;;;;;;;42.22;20.60;;;6.10;99.90;;;;;;5151385;27;20440;-72
2022/01/15 07:18:07;;;;;;;50.78;21.15;;;6.20;99.90;;;;;;5151315;27;20241;-72
2022/01/15 07:20:34;;;;;;;45.42;19.48;;;6.10;99.90;;;;;;5150972;27;20255;-72
2022/01/15 07:23:03;;;;;;;41.83;17.92;;;6.10;99.90;;;;;;5151613;27;20297;-72
2022/01/15 07:25:31;;;;;;;44.03;19.17;;;6.10;99.90;;;;;;5151157;27;20265;-72
2022/01/15 07:28:32;;;;;;;36.63;16.48;;;6.10;99.90;;;;;;5151147;27;20210;-73
2022/01/15 07:30:59;;;;;;;36.72;17.40;;;6.10;99.90;;;;;;5150541;27;20429;-73
2022/01/15 07:33:25;;;;;;;37.47;18.55;;;6.20;99.90;;;;;;5151078;27;20231;-72
2022/01/15 07:35:54;;;;;;;41.17;18.92;;;6.20;99.90;;;;;;5150614;27;20258;-72
2022/01/15 07:38:22;;;;;;;41.95;18.38;;;6.30;99.90;;;;;;5150602;27;20196;-70
2022/01/15 07:40:53;;;;;;;29.95;16.45;;;6.30;99.90;;;;;;5149971;27;20361;-72
2022/01/15 07:43:20;;;;;;;32.10;15.18;;;6.30;99.90;;;;;;5150530;27;20434;-72
2022/01/15 07:45:49;;;;;;;29.05;14.80;;;6.20;99.90;;;;;;5150471;27;20494;-71
2022/01/15 07:48:17;;;;;;;31.98;15.25;;;6.30;99.90;;;;;;5150063;27;20173;-72
2022/01/15 07:50:44;;;;;;;31.65;16.00;;;6.30;99.90;;;;;;5144844;27;20230;-78
2022/01/15 07:53:11;;;;;;;30.33;15.68;;;6.40;99.90;;;;;;5146271;27;20324;-78
2022/01/15 07:55:38;;;;;;;27.98;15.73;;;6.40;99.90;;;;;;5135426;27;20233;-78
2022/01/15 07:58:08;;;;;;;28.88;16.27;;;6.40;99.90;;;;;;5139169;27;20288;-77
2022/01/15 08:00:35;;;;;;;27.55;16.00;;;6.40;99.90;;;;;;5141509;27;20247;-75
2022/01/15 08:03:02;;;;;;;37.28;17.00;;;6.50;99.90;;;;;;5141525;27;20231;-73
2022/01/15 08:05:29;;;;;;;31.10;17.92;;;6.20;99.90;;;;;;5144084;27;20228;-76
2022/01/15 08:07:56;;;;;;;39.30;17.70;;;6.40;99.90;;;;;;5146045;27;20182;-74
2022/01/15 08:10:24;;;;;;;38.83;19.80;;;6.30;99.90;;;;;;5141159;27;20347;-76
2022/01/15 08:12:51;;;;;;;43.85;23.35;;;6.20;99.90;;;;;;5145183;27;20202;-72
2022/01/15 08:15:21;;;;;;;32.63;19.08;;;6.20;99.90;;;;;;5138980;27;20231;-77
2022/01/15 08:17:48;;;;;;;34.78;18.55;;;6.40;99.90;;;;;;5136013;27;20184;-77
2022/01/15 08:20:16;;;;;;;28.50;16.63;;;6.40;99.90;;;;;;5127795;28;20223;-80
2022/01/15 08:22:45;;;;;;;25.58;16.10;;;6.50;99.90;;;;;;5127683;27;20450;-74
2022/01/15 08:25:13;;;;;;;38.50;17.35;;;6.60;99.90;;;;;;5138582;27;20238;-74
2022/01/15 08:27:40;;;;;;;28.92;16.02;;;6.60;99.90;;;;;;5134078;27;20257;-76
2022/01/15 08:30:09;;;;;;;22.27;13.80;;;6.70;99.90;;;;;;5143634;27;20228;-78
2022/01/15 08:32:39;;;;;;;24.75;15.27;;;6.70;99.90;;;;;;5139923;27;20469;-74
2022/01/15 08:35:07;;;;;;;29.70;15.60;;;6.60;99.90;;;;;;5140777;27;20253;-74
2022/01/15 08:37:35;;;;;;;23.88;14.85;;;6.70;99.90;;;;;;5138688;27;20200;-77
2022/01/15 08:40:02;;;;;;;23.38;14.25;;;6.60;99.90;;;;;;5117326;27;20252;-74
2022/01/15 08:42:35;;;;;;;24.52;14.65;;;6.70;99.90;;;;;;5131511;27;20223;-75
2022/01/15 08:45:02;;;;;;;25.80;15.95;;;6.60;99.90;;;;;;5122890;28;20308;-75
2022/01/15 08:47:29;;;;;;;26.10;15.77;;;6.60;99.90;;;;;;5136732;27;20188;-76
2022/01/15 08:49:57;;;;;;;29.58;15.48;;;6.60;99.90;;;;;;5138630;27;20187;-77
2022/01/15 08:52:24;;;;;;;30.35;16.88;;;6.50;99.90;;;;;;5140307;27;20239;-75
2022/01/15 08:54:51;;;;;;;29.95;16.38;;;6.50;99.90;;;;;;5143378;27;20195;-74
2022/01/15 08:57:18;;;;;;;29.70;17.27;;;6.50;99.90;;;;;;5141169;27;20215;-76
2022/01/15 08:59:45;;;;;;;30.70;16.35;;;6.50;99.90;;;;;;5137328;27;20180;-74
2022/01/15 09:02:12;;;;;;;24.23;15.15;;;6.60;99.90;;;;;;5122983;28;20438;-77
2022/01/15 09:04:39;;;;;;;26.50;15.45;;;6.60;99.90;;;;;;5129307;27;20387;-75
2022/01/15 09:07:08;;;;;;;30.15;17.25;;;6.70;99.90;;;;;;5141241;27;20216;-78
2022/01/15 09:09:35;;;;;;;20.23;14.73;;;6.70;99.90;;;;;;5141905;27;20181;-75
2022/01/15 09:12:02;;;;;;;28.38;15.15;;;7.10;99.90;;;;;;5144425;27;20216;-76
2022/01/15 09:14:29;;;;;;;23.33;14.40;;;7.60;99.90;;;;;;5139182;27;20216;-74
2022/01/15 09:16:56;;;;;;;20.65;12.75;;;7.60;99.90;;;;;;5143652;27;20254;-75
2022/01/15 09:19:23;;;;;;;22.90;13.30;;;8.10;99.90;;;;;;5138705;27;20279;-75
2022/01/15 09:21:50;;;;;;;18.67;13.48;;;8.10;99.90;;;;;;5139107;27;20384;-75
2022/01/15 09:24:19;;;;;;;20.10;13.65;;;7.90;99.90;;;;;;5136710;27;20320;-77
2022/01/15 09:27:01;;;;;;;20.83;12.25;;;7.80;99.90;;;;;;5139525;27;20224;-77
2022/01/15 09:32:13;;;;;;;25.30;13.18;;;7.90;99.90;;;;;;5148380;27;20233;-78
2022/01/15 09:34:40;;;;;;;23.25;15.27;;;8.30;99.90;;;;;;5148795;27;20199;-79
2022/01/15 09:37:08;;;;;;;14.63;11.68;;;8.40;99.90;;;;;;5130973;27;20245;-74
2022/01/15 09:39:37;;;;;;;20.80;12.75;;;8.50;99.90;;;;;;5125219;28;20193;-75
2022/01/15 09:42:05;;;;;;;16.40;11.60;;;8.60;99.90;;;;;;5122546;28;20251;-75
2022/01/15 09:44:34;;;;;;;20.17;12.85;;;8.80;99.90;;;;;;5127838;28;20248;-74
2022/01/15 09:47:02;;;;;;;15.65;10.75;;;8.80;99.90;;;;;;5138357;27;20257;-77
2022/01/15 09:49:30;;;;;;;15.20;11.60;;;8.90;99.90;;;;;;5137047;28;20199;-75
2022/01/15 09:51:57;;;;;;;14.43;12.23;;;9.00;99.90;;;;;;5143380;27;20201;-75
2022/01/15 09:54:25;;;;;;;23.58;14.52;;;8.90;99.90;;;;;;5135236;28;20222;-71
2022/01/15 09:56:53;;;;;;;19.80;13.93;;;8.90;99.90;;;;;;5141318;28;20216;-72
2022/01/15 09:59:20;;;;;;;18.17;13.13;;;8.90;99.90;;;;;;5136367;28;20255;-71
2022/01/15 10:01:48;;;;;;;18.30;11.93;;;9.10;99.90;;;;;;5139979;27;20257;-71
2022/01/15 10:04:15;;;;;;;17.63;11.60;;;9.50;99.90;;;;;;5141504;27;20424;-72
2022/01/15 10:07:06;;;;;;;17.92;11.85;;;9.60;99.90;;;;;;5142891;27;20248;-72
2022/01/15 10:09:33;;;;;;;15.75;10.65;;;9.90;99.90;;;;;;5142183;27;20217;-70
2022/01/15 10:12:01;;;;;;;12.85;9.80;;;10.60;99.90;;;;;;5149040;27;20207;-71
2022/01/15 10:14:30;;;;;;;13.75;9.25;;;11.50;99.90;;;;;;5133183;27;20188;-72
2022/01/15 10:16:59;;;;;;;17.85;11.35;;;11.60;99.90;;;;;;5147121;27;20174;-72
2022/01/15 10:19:31;;;;;;;18.80;12.35;;;11.00;99.90;;;;;;5147680;27;20201;-71
2022/01/15 10:22:06;;;;;;;15.25;11.65;;;10.90;99.90;;;;;;5144722;27;20249;-71
2022/01/15 10:24:34;;;;;;;18.15;12.95;;;10.60;99.90;;;;;;5142013;27;20190;-71
2022/01/15 10:27:22;;;;;;;20.77;11.13;;;10.60;99.90;;;;;;5144546;27;20213;-71
2022/01/15 10:29:53;;;;;;;16.05;9.95;;;10.60;99.90;;;;;;5142697;27;20242;-71
2022/01/15 10:32:20;;;;;;;18.35;12.15;;;10.80;99.90;;;;;;5139813;27;20376;-70
2022/01/15 10:34:47;;;;;;;14.75;11.18;;;11.00;99.90;;;;;;5144157;27;20186;-71
2022/01/15 10:37:17;;;;;;;17.23;11.23;;;10.80;99.90;;;;;;5146611;27;20293;-70
2022/01/15 10:39:56;;;;;;;18.13;11.23;;;10.80;99.90;;;;;;5126937;27;20202;-71
2022/01/15 10:42:25;;;;;;;13.93;9.88;;;11.10;99.90;;;;;;5145824;27;20270;-71
2022/01/15 10:44:53;;;;;;;15.82;11.07;;;11.50;99.90;;;;;;5139864;27;20263;-71
2022/01/15 10:47:22;;;;;;;17.58;12.35;;;11.90;99.90;;;;;;5144535;27;20216;-71
2022/01/15 10:49:50;;;;;;;14.95;11.38;;;11.90;99.90;;;;;;5134846;27;20179;-70
2022/01/15 10:52:18;;;;;;;14.82;10.98;;;11.60;99.90;;;;;;5145864;27;20207;-72
2022/01/15 10:55:07;;;;;;;14.60;11.50;;;11.70;99.90;;;;;;5131958;27;20206;-72
2022/01/15 10:57:37;;;;;;;15.27;11.35;;;11.70;99.90;;;;;;5144174;27;20265;-71
2022/01/15 11:00:14;;;;;;;16.35;10.73;;;11.70;99.90;;;;;;5136045;27;20210;-70
2022/01/15 11:02:42;;;;;;;14.27;10.48;;;11.60;99.90;;;;;;5141221;27;20215;-72
2022/01/15 11:05:30;;;;;;;13.25;9.75;;;11.50;99.90;;;;;;5146376;27;20234;-71
2022/01/15 11:08:15;;;;;;;11.73;9.93;;;11.40;99.90;;;;;;5138834;27;20229;-72
2022/01/15 11:10:45;;;;;;;14.57;11.50;;;11.40;99.90;;;;;;5141825;27;20236;-70
2022/01/15 11:13:16;;;;;;;18.08;10.95;;;11.20;99.90;;;;;;5128853;28;20188;-72
2022/01/15 11:15:45;;;;;;;14.82;10.40;;;11.30;99.90;;;;;;5133480;27;20194;-71
2022/01/15 11:18:17;;;;;;;14.63;8.93;;;11.30;99.90;;;;;;5140802;27;20187;-71
2022/01/15 11:20:47;;;;;;;19.70;10.00;;;11.10;99.90;;;;;;5140834;27;20404;-71
2022/01/15 11:23:16;;;;;;;14.55;9.63;;;11.10;99.90;;;;;;5138371;27;20183;-71
2022/01/15 11:25:45;;;;;;;15.07;9.02;;;10.90;99.90;;;;;;5134408;27;20208;-71
2022/01/15 11:28:14;;;;;;;12.23;6.22;;;11.00;99.90;;;;;;5137475;27;20224;-71
2022/01/15 11:30:43;;;;;;;12.77;6.53;;;10.60;99.90;;;;;;5140892;27;20190;-71
2022/01/15 11:33:12;;;;;;;13.65;7.35;;;10.40;99.90;;;;;;5142206;27;20230;-71
2022/01/15 11:35:41;;;;;;;12.65;7.05;;;10.40;99.90;;;;;;5142179;27;20180;-71
2022/01/15 11:38:08;;;;;;;10.50;5.50;;;10.20;99.90;;;;;;5145575;27;20187;-71
2022/01/15 11:40:47;;;;;;;13.70;4.35;;;9.90;99.90;;;;;;5139185;27;20209;-70
2022/01/15 11:43:50;;;;;;;8.68;3.95;;;10.00;99.90;;;;;;5143691;27;20197;-71
2022/01/15 11:46:44;;;;;;;12.05;4.22;;;9.80;99.90;;;;;;5121882;27;20222;-72
2022/01/15 11:49:42;;;;;;;12.85;4.47;;;9.60;99.90;;;;;;5122525;28;20307;-71
2022/01/15 11:52:34;;;;;;;6.45;4.20;;;9.50;99.90;;;;;;5132259;27;20216;-74
2022/01/15 11:55:16;;;;;;;9.82;4.25;;;9.80;99.90;;;;;;5132453;27;20268;-72
2022/01/15 11:57:52;;;;;;;16.23;4.43;;;9.90;99.90;;;;;;5125059;28;20257;-73
2022/01/15 12:00:38;;;;;;;8.98;4.78;;;9.70;99.90;;;;;;5127911;28;20415;-73
2022/01/15 12:03:12;;;;;;;12.63;4.15;;;10.00;99.90;;;;;;5131561;27;20385;-72
2022/01/15 12:05:44;;;;;;;12.45;3.80;;;9.60;99.90;;;;;;5143222;27;20273;-72
2022/01/15 12:08:32;;;;;;;11.07;6.35;;;9.70;99.90;;;;;;5139294;27;20355;-72
2022/01/15 12:11:07;;;;;;;15.82;7.07;;;9.50;99.90;;;;;;5134135;27;20212;-72
2022/01/15 12:13:48;;;;;;;9.82;5.60;;;9.20;99.90;;;;;;5126528;27;20178;-70
2022/01/15 12:16:29;;;;;;;8.77;5.30;;;9.00;99.90;;;;;;5120611;28;20257;-71
2022/01/15 12:18:59;;;;;;;18.52;6.63;;;8.90;99.90;;;;;;5126058;27;20185;-71
2022/01/15 12:21:57;;;;;;;11.75;5.70;;;8.80;99.90;;;;;;5136628;27;20216;-70
2022/01/15 12:24:54;;;;;;;13.80;6.28;;;8.90;99.90;;;;;;5138367;27;20242;-70
2022/01/15 12:27:26;;;;;;;13.80;6.30;;;8.80;99.90;;;;;;5117407;27;20193;-73
2022/01/15 12:30:07;;;;;;;20.95;6.07;;;8.90;99.90;;;;;;5140975;27;20216;-71
2022/01/15 12:32:38;;;;;;;10.10;5.70;;;8.90;99.90;;;;;;5130981;27;20368;-71
2022/01/15 12:38:30;;;;;;;11.90;6.00;;;8.70;99.90;;;;;;5126274;27;20231;-72
2022/01/15 12:41:01;;;;;;;21.63;12.15;;;8.60;99.90;;;;;;5142574;27;20447;-71
2022/01/15 12:43:29;;;;;;;13.48;6.00;;;8.60;99.90;;;;;;5149283;27;20355;-73
2022/01/15 12:46:15;;;;;;;7.68;5.38;;;8.60;99.90;;;;;;5148582;27;20201;-71
2022/01/15 12:48:44;;;;;;;12.50;6.35;;;8.80;99.90;;;;;;5149282;27;20215;-72
2022/01/15 12:51:18;;;;;;;15.77;6.32;;;8.70;99.90;;;;;;5148713;27;20235;-72
2022/01/15 12:53:49;;;;;;;13.35;5.53;;;8.70;99.90;;;;;;5129800;27;20192;-72
2022/01/15 12:56:19;;;;;;;19.05;7.93;;;8.60;99.90;;;;;;5137123;27;20205;-70
2022/01/15 12:58:46;;;;;;;21.23;7.55;;;8.60;99.90;;;;;;5118207;28;20174;-71
2022/01/15 13:01:22;;;;;;;12.38;7.00;;;8.50;99.90;;;;;;5124439;28;20202;-71
2022/01/15 13:03:49;;;;;;;14.45;5.95;;;8.50;99.90;;;;;;5122253;28;20184;-71
2022/01/15 13:06:16;;;;;;;13.40;5.50;;;8.40;99.90;;;;;;5119818;28;20253;-69
2022/01/15 13:08:45;;;;;;;11.90;6.55;;;8.40;99.90;;;;;;5124010;27;20209;-70
2022/01/15 13:11:22;;;;;;;11.70;7.65;;;8.40;99.90;;;;;;5121557;28;20227;-68
2022/01/15 13:13:53;;;;;;;11.65;6.50;;;8.60;99.90;;;;;;5125745;28;20189;-70